RJSO(METAR)
05/30 16:00
METAR RJSO 300700Z 25014KT 230V290 9999 NSC 24/06 Q1018 RMK A3007=
戻る
トップページへ戻る
IMOC Co,.Ltd.